sensor_id;sensor_type;location;lat;lon;timestamp;P1;durP1;ratioP1;P2;durP2;ratioP2
14760;SDS011;7472;45.396;5.272;2023-11-19T00:01:18;3.90;;;2.67;;
14760;SDS011;7472;45.396;5.272;2023-11-19T00:03:45;4.68;;;3.10;;
14760;SDS011;7472;45.396;5.272;2023-11-19T00:06:13;3.65;;;2.90;;
14760;SDS011;7472;45.396;5.272;2023-11-19T00:08:42;4.60;;;2.90;;
14760;SDS011;7472;45.396;5.272;2023-11-19T00:11:09;5.25;;;3.10;;
14760;SDS011;7472;45.396;5.272;2023-11-19T00:13:40;5.43;;;3.13;;
14760;SDS011;7472;45.396;5.272;2023-11-19T00:16:08;4.72;;;2.95;;
14760;SDS011;7472;45.396;5.272;2023-11-19T00:18:37;8.75;;;3.40;;
14760;SDS011;7472;45.396;5.272;2023-11-19T00:21:04;4.45;;;2.85;;
14760;SDS011;7472;45.396;5.272;2023-11-19T00:23:33;5.05;;;2.38;;
14760;SDS011;7472;45.396;5.272;2023-11-19T00:26:00;4.20;;;2.70;;
14760;SDS011;7472;45.396;5.272;2023-11-19T00:28:27;4.10;;;2.42;;
14760;SDS011;7472;45.396;5.272;2023-11-19T00:30:55;3.83;;;2.50;;
14760;SDS011;7472;45.396;5.272;2023-11-19T00:33:22;3.85;;;2.63;;
14760;SDS011;7472;45.396;5.272;2023-11-19T00:35:51;3.33;;;2.78;;
14760;SDS011;7472;45.396;5.272;2023-11-19T00:38:18;5.03;;;3.13;;
14760;SDS011;7472;45.396;5.272;2023-11-19T00:40:46;5.18;;;2.72;;
14760;SDS011;7472;45.396;5.272;2023-11-19T00:43:13;3.10;;;2.30;;
14760;SDS011;7472;45.396;5.272;2023-11-19T00:45:41;6.68;;;3.10;;
14760;SDS011;7472;45.396;5.272;2023-11-19T00:48:09;6.68;;;2.97;;
14760;SDS011;7472;45.396;5.272;2023-11-19T00:50:36;6.15;;;2.80;;
14760;SDS011;7472;45.396;5.272;2023-11-19T00:53:08;4.10;;;2.60;;
14760;SDS011;7472;45.396;5.272;2023-11-19T00:55:36;7.28;;;3.75;;
14760;SDS011;7472;45.396;5.272;2023-11-19T00:58:03;5.60;;;3.65;;
14760;SDS011;7472;45.396;5.272;2023-11-19T01:00:30;4.05;;;2.80;;
14760;SDS011;7472;45.396;5.272;2023-11-19T01:02:58;4.45;;;3.55;;
14760;SDS011;7472;45.396;5.272;2023-11-19T01:05:25;4.60;;;3.00;;
14760;SDS011;7472;45.396;5.272;2023-11-19T01:07:53;3.92;;;2.88;;
14760;SDS011;7472;45.396;5.272;2023-11-19T01:10:22;6.05;;;3.53;;
14760;SDS011;7472;45.396;5.272;2023-11-19T01:12:51;4.65;;;3.42;;
14760;SDS011;7472;45.396;5.272;2023-11-19T01:15:18;2.92;;;2.50;;
14760;SDS011;7472;45.396;5.272;2023-11-19T01:17:46;4.00;;;3.05;;
14760;SDS011;7472;45.396;5.272;2023-11-19T01:20:13;4.60;;;3.03;;
14760;SDS011;7472;45.396;5.272;2023-11-19T01:22:41;4.78;;;2.80;;
14760;SDS011;7472;45.396;5.272;2023-11-19T01:25:08;4.57;;;2.80;;
14760;SDS011;7472;45.396;5.272;2023-11-19T01:27:37;4.45;;;2.88;;
14760;SDS011;7472;45.396;5.272;2023-11-19T01:30:05;3.97;;;3.00;;
14760;SDS011;7472;45.396;5.272;2023-11-19T01:32:34;3.20;;;2.10;;
14760;SDS011;7472;45.396;5.272;2023-11-19T01:35:02;4.50;;;2.38;;
14760;SDS011;7472;45.396;5.272;2023-11-19T01:37:30;4.65;;;1.98;;
14760;SDS011;7472;45.396;5.272;2023-11-19T01:39:57;3.63;;;2.60;;
14760;SDS011;7472;45.396;5.272;2023-11-19T01:42:25;2.33;;;1.85;;
14760;SDS011;7472;45.396;5.272;2023-11-19T01:45:00;2.58;;;1.90;;
14760;SDS011;7472;45.396;5.272;2023-11-19T01:47:28;2.90;;;2.28;;
14760;SDS011;7472;45.396;5.272;2023-11-19T01:49:57;2.50;;;1.98;;
14760;SDS011;7472;45.396;5.272;2023-11-19T01:52:24;4.22;;;1.85;;
14760;SDS011;7472;45.396;5.272;2023-11-19T01:54:52;2.83;;;2.00;;
14760;SDS011;7472;45.396;5.272;2023-11-19T01:57:20;2.70;;;1.73;;
14760;SDS011;7472;45.396;5.272;2023-11-19T01:59:49;2.05;;;1.70;;
14760;SDS011;7472;45.396;5.272;2023-11-19T02:02:18;1.70;;;1.48;;
14760;SDS011;7472;45.396;5.272;2023-11-19T02:04:47;2.60;;;2.13;;
14760;SDS011;7472;45.396;5.272;2023-11-19T02:07:14;2.90;;;1.90;;
14760;SDS011;7472;45.396;5.272;2023-11-19T02:09:42;2.38;;;1.63;;
14760;SDS011;7472;45.396;5.272;2023-11-19T02:12:10;4.03;;;1.77;;
14760;SDS011;7472;45.396;5.272;2023-11-19T02:14:38;2.45;;;1.98;;
14760;SDS011;7472;45.396;5.272;2023-11-19T02:17:05;2.40;;;1.70;;
14760;SDS011;7472;45.396;5.272;2023-11-19T02:19:34;4.40;;;2.65;;
14760;SDS011;7472;45.396;5.272;2023-11-19T02:22:02;3.13;;;2.25;;
14760;SDS011;7472;45.396;5.272;2023-11-19T02:24:30;5.35;;;3.20;;
14760;SDS011;7472;45.396;5.272;2023-11-19T02:27:01;4.47;;;3.30;;
14760;SDS011;7472;45.396;5.272;2023-11-19T02:29:32;5.38;;;3.33;;
14760;SDS011;7472;45.396;5.272;2023-11-19T02:32:00;4.95;;;3.38;;
14760;SDS011;7472;45.396;5.272;2023-11-19T02:34:28;4.18;;;2.85;;
14760;SDS011;7472;45.396;5.272;2023-11-19T02:36:56;5.07;;;3.05;;
14760;SDS011;7472;45.396;5.272;2023-11-19T02:39:23;4.47;;;3.45;;
14760;SDS011;7472;45.396;5.272;2023-11-19T02:41:51;3.63;;;3.13;;
14760;SDS011;7472;45.396;5.272;2023-11-19T02:44:19;7.70;;;4.68;;
14760;SDS011;7472;45.396;5.272;2023-11-19T02:46:47;5.43;;;3.40;;
14760;SDS011;7472;45.396;5.272;2023-11-19T02:49:15;4.45;;;3.45;;
14760;SDS011;7472;45.396;5.272;2023-11-19T02:51:42;3.88;;;3.35;;
14760;SDS011;7472;45.396;5.272;2023-11-19T02:54:09;4.78;;;3.22;;
14760;SDS011;7472;45.396;5.272;2023-11-19T02:56:37;3.72;;;3.00;;
14760;SDS011;7472;45.396;5.272;2023-11-19T02:59:09;4.15;;;3.17;;
14760;SDS011;7472;45.396;5.272;2023-11-19T03:01:53;2.35;;;2.17;;
14760;SDS011;7472;45.396;5.272;2023-11-19T03:04:20;3.40;;;2.35;;
14760;SDS011;7472;45.396;5.272;2023-11-19T03:06:48;3.22;;;2.50;;
14760;SDS011;7472;45.396;5.272;2023-11-19T03:09:15;3.53;;;2.47;;
14760;SDS011;7472;45.396;5.272;2023-11-19T03:11:43;4.50;;;2.67;;
14760;SDS011;7472;45.396;5.272;2023-11-19T03:14:10;3.53;;;2.70;;
14760;SDS011;7472;45.396;5.272;2023-11-19T03:16:37;3.00;;;2.50;;
14760;SDS011;7472;45.396;5.272;2023-11-19T03:19:06;2.75;;;2.13;;
14760;SDS011;7472;45.396;5.272;2023-11-19T03:21:33;3.20;;;2.15;;
14760;SDS011;7472;45.396;5.272;2023-11-19T03:24:01;1.80;;;1.70;;
14760;SDS011;7472;45.396;5.272;2023-11-19T03:26:29;2.67;;;2.05;;
14760;SDS011;7472;45.396;5.272;2023-11-19T03:28:58;4.45;;;2.30;;
14760;SDS011;7472;45.396;5.272;2023-11-19T03:31:26;2.72;;;1.88;;
14760;SDS011;7472;45.396;5.272;2023-11-19T03:33:54;4.68;;;2.08;;
14760;SDS011;7472;45.396;5.272;2023-11-19T03:36:22;5.43;;;2.00;;
14760;SDS011;7472;45.396;5.272;2023-11-19T03:38:50;3.20;;;2.28;;
14760;SDS011;7472;45.396;5.272;2023-11-19T03:41:17;3.05;;;2.30;;
14760;SDS011;7472;45.396;5.272;2023-11-19T03:43:44;5.00;;;2.97;;
14760;SDS011;7472;45.396;5.272;2023-11-19T03:46:16;4.50;;;3.83;;
14760;SDS011;7472;45.396;5.272;2023-11-19T03:48:43;6.03;;;3.22;;
14760;SDS011;7472;45.396;5.272;2023-11-19T03:51:11;3.67;;;3.13;;
14760;SDS011;7472;45.396;5.272;2023-11-19T03:53:41;4.07;;;2.63;;
14760;SDS011;7472;45.396;5.272;2023-11-19T03:56:09;2.63;;;2.42;;
14760;SDS011;7472;45.396;5.272;2023-11-19T03:58:36;2.90;;;2.40;;
14760;SDS011;7472;45.396;5.272;2023-11-19T04:01:04;2.25;;;2.05;;
14760;SDS011;7472;45.396;5.272;2023-11-19T04:03:32;3.25;;;2.28;;
14760;SDS011;7472;45.396;5.272;2023-11-19T04:05:59;2.60;;;2.20;;
14760;SDS011;7472;45.396;5.272;2023-11-19T04:08:26;2.15;;;1.95;;
14760;SDS011;7472;45.396;5.272;2023-11-19T04:10:55;2.47;;;1.83;;
14760;SDS011;7472;45.396;5.272;2023-11-19T04:13:23;3.58;;;2.47;;
14760;SDS011;7472;45.396;5.272;2023-11-19T04:15:50;3.58;;;2.40;;
14760;SDS011;7472;45.396;5.272;2023-11-19T04:18:17;2.22;;;1.92;;
14760;SDS011;7472;45.396;5.272;2023-11-19T04:20:44;6.05;;;2.40;;
14760;SDS011;7472;45.396;5.272;2023-11-19T04:23:12;2.42;;;2.22;;
14760;SDS011;7472;45.396;5.272;2023-11-19T04:25:39;3.13;;;2.03;;
14760;SDS011;7472;45.396;5.272;2023-11-19T04:28:08;2.33;;;2.13;;
14760;SDS011;7472;45.396;5.272;2023-11-19T04:30:35;4.30;;;2.05;;
14760;SDS011;7472;45.396;5.272;2023-11-19T04:33:04;2.75;;;2.08;;
14760;SDS011;7472;45.396;5.272;2023-11-19T04:35:31;2.65;;;2.28;;
14760;SDS011;7472;45.396;5.272;2023-11-19T04:37:58;2.58;;;2.03;;
14760;SDS011;7472;45.396;5.272;2023-11-19T04:40:25;2.22;;;1.77;;
14760;SDS011;7472;45.396;5.272;2023-11-19T04:42:53;4.65;;;2.17;;
14760;SDS011;7472;45.396;5.272;2023-11-19T04:45:21;2.60;;;2.10;;
14760;SDS011;7472;45.396;5.272;2023-11-19T04:47:49;4.07;;;2.88;;
14760;SDS011;7472;45.396;5.272;2023-11-19T04:50:16;3.60;;;2.78;;
14760;SDS011;7472;45.396;5.272;2023-11-19T04:52:44;3.47;;;2.70;;
14760;SDS011;7472;45.396;5.272;2023-11-19T04:55:12;3.40;;;3.10;;
14760;SDS011;7472;45.396;5.272;2023-11-19T04:57:39;5.18;;;2.35;;
14760;SDS011;7472;45.396;5.272;2023-11-19T05:00:08;2.83;;;1.90;;
14760;SDS011;7472;45.396;5.272;2023-11-19T05:02:37;4.00;;;2.17;;
14760;SDS011;7472;45.396;5.272;2023-11-19T05:05:05;2.50;;;2.30;;
14760;SDS011;7472;45.396;5.272;2023-11-19T05:07:32;4.88;;;2.53;;
14760;SDS011;7472;45.396;5.272;2023-11-19T05:09:59;6.57;;;2.78;;
14760;SDS011;7472;45.396;5.272;2023-11-19T05:12:29;2.72;;;2.03;;
14760;SDS011;7472;45.396;5.272;2023-11-19T05:14:56;2.88;;;2.10;;
14760;SDS011;7472;45.396;5.272;2023-11-19T05:17:24;3.83;;;2.53;;
14760;SDS011;7472;45.396;5.272;2023-11-19T05:19:52;3.33;;;2.45;;
14760;SDS011;7472;45.396;5.272;2023-11-19T05:22:20;4.43;;;2.65;;
14760;SDS011;7472;45.396;5.272;2023-11-19T05:24:47;2.92;;;2.30;;
14760;SDS011;7472;45.396;5.272;2023-11-19T05:27:14;4.53;;;2.97;;
14760;SDS011;7472;45.396;5.272;2023-11-19T05:29:42;2.95;;;2.30;;
14760;SDS011;7472;45.396;5.272;2023-11-19T05:32:09;3.47;;;2.35;;
14760;SDS011;7472;45.396;5.272;2023-11-19T05:34:36;4.97;;;2.22;;
14760;SDS011;7472;45.396;5.272;2023-11-19T05:37:05;3.42;;;2.33;;
14760;SDS011;7472;45.396;5.272;2023-11-19T05:39:35;5.47;;;2.45;;
14760;SDS011;7472;45.396;5.272;2023-11-19T05:42:02;3.38;;;2.28;;
14760;SDS011;7472;45.396;5.272;2023-11-19T05:44:30;2.30;;;2.00;;
14760;SDS011;7472;45.396;5.272;2023-11-19T05:46:57;2.95;;;2.67;;
14760;SDS011;7472;45.396;5.272;2023-11-19T05:49:24;3.78;;;2.38;;
14760;SDS011;7472;45.396;5.272;2023-11-19T05:51:51;3.22;;;2.60;;
14760;SDS011;7472;45.396;5.272;2023-11-19T05:54:22;3.42;;;2.50;;
14760;SDS011;7472;45.396;5.272;2023-11-19T05:56:49;3.42;;;2.42;;
14760;SDS011;7472;45.396;5.272;2023-11-19T05:59:19;2.25;;;2.05;;
14760;SDS011;7472;45.396;5.272;2023-11-19T06:01:47;2.45;;;2.03;;
14760;SDS011;7472;45.396;5.272;2023-11-19T06:04:15;4.47;;;2.47;;
14760;SDS011;7472;45.396;5.272;2023-11-19T06:06:42;3.42;;;2.33;;
14760;SDS011;7472;45.396;5.272;2023-11-19T06:09:09;3.42;;;2.45;;
14760;SDS011;7472;45.396;5.272;2023-11-19T06:11:39;2.33;;;2.13;;
14760;SDS011;7472;45.396;5.272;2023-11-19T06:14:06;3.28;;;2.22;;
14760;SDS011;7472;45.396;5.272;2023-11-19T06:16:34;2.25;;;1.85;;
14760;SDS011;7472;45.396;5.272;2023-11-19T06:19:02;2.92;;;2.17;;
14760;SDS011;7472;45.396;5.272;2023-11-19T06:21:29;4.72;;;1.80;;
14760;SDS011;7472;45.396;5.272;2023-11-19T06:23:56;3.30;;;2.20;;
14760;SDS011;7472;45.396;5.272;2023-11-19T06:26:24;3.88;;;2.92;;
14760;SDS011;7472;45.396;5.272;2023-11-19T06:28:53;2.90;;;2.15;;
14760;SDS011;7472;45.396;5.272;2023-11-19T06:31:20;4.15;;;2.50;;
14760;SDS011;7472;45.396;5.272;2023-11-19T06:33:47;3.55;;;2.53;;
14760;SDS011;7472;45.396;5.272;2023-11-19T06:36:15;3.63;;;2.60;;
14760;SDS011;7472;45.396;5.272;2023-11-19T06:38:42;2.95;;;2.25;;
14760;SDS011;7472;45.396;5.272;2023-11-19T06:41:09;5.15;;;2.53;;
14760;SDS011;7472;45.396;5.272;2023-11-19T06:43:37;8.95;;;4.57;;
14760;SDS011;7472;45.396;5.272;2023-11-19T06:46:13;5.05;;;4.55;;
14760;SDS011;7472;45.396;5.272;2023-11-19T06:48:41;4.90;;;4.40;;
14760;SDS011;7472;45.396;5.272;2023-11-19T06:51:09;8.32;;;4.50;;
14760;SDS011;7472;45.396;5.272;2023-11-19T06:53:36;3.35;;;3.05;;
14760;SDS011;7472;45.396;5.272;2023-11-19T06:56:05;4.45;;;2.80;;
14760;SDS011;7472;45.396;5.272;2023-11-19T06:58:35;3.22;;;2.60;;
14760;SDS011;7472;45.396;5.272;2023-11-19T07:01:03;3.40;;;2.55;;
14760;SDS011;7472;45.396;5.272;2023-11-19T07:03:32;3.65;;;2.55;;
14760;SDS011;7472;45.396;5.272;2023-11-19T07:05:59;3.30;;;2.65;;
14760;SDS011;7472;45.396;5.272;2023-11-19T07:08:27;3.50;;;2.90;;
14760;SDS011;7472;45.396;5.272;2023-11-19T07:10:54;4.22;;;2.40;;
14760;SDS011;7472;45.396;5.272;2023-11-19T07:13:21;4.90;;;2.88;;
14760;SDS011;7472;45.396;5.272;2023-11-19T07:15:49;5.18;;;3.10;;
14760;SDS011;7472;45.396;5.272;2023-11-19T07:18:16;5.03;;;3.15;;
14760;SDS011;7472;45.396;5.272;2023-11-19T07:20:45;3.97;;;3.28;;
14760;SDS011;7472;45.396;5.272;2023-11-19T07:23:12;3.30;;;2.83;;
14760;SDS011;7472;45.396;5.272;2023-11-19T07:25:42;3.13;;;2.60;;
14760;SDS011;7472;45.396;5.272;2023-11-19T07:28:10;4.57;;;2.60;;
14760;SDS011;7472;45.396;5.272;2023-11-19T07:30:37;7.25;;;3.10;;
14760;SDS011;7472;45.396;5.272;2023-11-19T07:33:05;3.00;;;2.17;;
14760;SDS011;7472;45.396;5.272;2023-11-19T07:35:32;3.80;;;2.75;;
14760;SDS011;7472;45.396;5.272;2023-11-19T07:38:01;3.67;;;2.72;;
14760;SDS011;7472;45.396;5.272;2023-11-19T07:40:29;6.15;;;2.60;;
14760;SDS011;7472;45.396;5.272;2023-11-19T07:42:56;2.85;;;2.08;;
14760;SDS011;7472;45.396;5.272;2023-11-19T07:45:23;4.40;;;3.67;;
14760;SDS011;7472;45.396;5.272;2023-11-19T07:47:52;4.53;;;2.95;;
14760;SDS011;7472;45.396;5.272;2023-11-19T07:50:19;3.75;;;2.63;;
14760;SDS011;7472;45.396;5.272;2023-11-19T07:52:47;5.55;;;2.70;;
14760;SDS011;7472;45.396;5.272;2023-11-19T07:55:16;4.80;;;3.30;;
14760;SDS011;7472;45.396;5.272;2023-11-19T07:57:43;4.85;;;2.95;;
14760;SDS011;7472;45.396;5.272;2023-11-19T08:00:11;5.20;;;3.13;;
14760;SDS011;7472;45.396;5.272;2023-11-19T08:02:38;5.75;;;3.88;;
14760;SDS011;7472;45.396;5.272;2023-11-19T08:05:06;5.57;;;3.45;;
14760;SDS011;7472;45.396;5.272;2023-11-19T08:07:33;5.43;;;3.40;;
14760;SDS011;7472;45.396;5.272;2023-11-19T08:10:01;3.70;;;2.88;;
14760;SDS011;7472;45.396;5.272;2023-11-19T08:12:31;4.35;;;3.30;;
14760;SDS011;7472;45.396;5.272;2023-11-19T08:15:00;4.18;;;3.70;;
14760;SDS011;7472;45.396;5.272;2023-11-19T08:17:27;3.22;;;2.88;;
14760;SDS011;7472;45.396;5.272;2023-11-19T08:19:55;4.07;;;3.67;;
14760;SDS011;7472;45.396;5.272;2023-11-19T08:22:22;3.90;;;2.92;;
14760;SDS011;7472;45.396;5.272;2023-11-19T08:24:50;4.85;;;3.38;;
14760;SDS011;7472;45.396;5.272;2023-11-19T08:27:17;4.53;;;3.95;;
14760;SDS011;7472;45.396;5.272;2023-11-19T08:29:45;4.45;;;3.63;;
14760;SDS011;7472;45.396;5.272;2023-11-19T08:32:13;3.97;;;3.30;;
14760;SDS011;7472;45.396;5.272;2023-11-19T08:34:40;3.72;;;3.30;;
14760;SDS011;7472;45.396;5.272;2023-11-19T08:37:08;8.40;;;3.15;;
14760;SDS011;7472;45.396;5.272;2023-11-19T08:39:35;3.35;;;2.60;;
14760;SDS011;7472;45.396;5.272;2023-11-19T08:42:03;3.05;;;2.75;;
14760;SDS011;7472;45.396;5.272;2023-11-19T08:44:31;3.38;;;2.45;;
14760;SDS011;7472;45.396;5.272;2023-11-19T08:46:59;4.45;;;2.03;;
14760;SDS011;7472;45.396;5.272;2023-11-19T08:49:27;3.20;;;2.00;;
14760;SDS011;7472;45.396;5.272;2023-11-19T08:51:54;4.53;;;2.00;;
14760;SDS011;7472;45.396;5.272;2023-11-19T08:54:21;2.30;;;1.70;;
14760;SDS011;7472;45.396;5.272;2023-11-19T08:56:49;3.13;;;2.05;;
14760;SDS011;7472;45.396;5.272;2023-11-19T08:59:16;2.55;;;2.30;;
14760;SDS011;7472;45.396;5.272;2023-11-19T09:01:44;2.20;;;1.98;;
14760;SDS011;7472;45.396;5.272;2023-11-19T09:04:14;2.47;;;1.60;;
14760;SDS011;7472;45.396;5.272;2023-11-19T09:06:42;2.88;;;1.92;;
14760;SDS011;7472;45.396;5.272;2023-11-19T09:09:09;2.42;;;1.83;;
14760;SDS011;7472;45.396;5.272;2023-11-19T09:11:37;2.53;;;2.03;;
14760;SDS011;7472;45.396;5.272;2023-11-19T09:14:04;3.80;;;1.95;;
14760;SDS011;7472;45.396;5.272;2023-11-19T09:16:32;3.05;;;2.38;;
14760;SDS011;7472;45.396;5.272;2023-11-19T09:18:59;3.80;;;2.50;;
14760;SDS011;7472;45.396;5.272;2023-11-19T09:21:29;3.72;;;2.45;;
14760;SDS011;7472;45.396;5.272;2023-11-19T09:23:56;3.80;;;2.25;;
14760;SDS011;7472;45.396;5.272;2023-11-19T09:26:23;4.25;;;3.05;;
14760;SDS011;7472;45.396;5.272;2023-11-19T09:28:51;4.13;;;2.58;;
14760;SDS011;7472;45.396;5.272;2023-11-19T09:31:18;3.35;;;2.47;;
14760;SDS011;7472;45.396;5.272;2023-11-19T09:33:46;2.65;;;2.20;;
14760;SDS011;7472;45.396;5.272;2023-11-19T09:36:13;3.00;;;2.08;;
14760;SDS011;7472;45.396;5.272;2023-11-19T09:38:43;3.08;;;2.47;;
14760;SDS011;7472;45.396;5.272;2023-11-19T09:41:10;3.47;;;2.60;;
14760;SDS011;7472;45.396;5.272;2023-11-19T09:43:38;3.25;;;2.45;;
14760;SDS011;7472;45.396;5.272;2023-11-19T09:46:06;3.20;;;2.40;;
14760;SDS011;7472;45.396;5.272;2023-11-19T09:48:35;3.17;;;2.38;;
14760;SDS011;7472;45.396;5.272;2023-11-19T09:51:03;5.30;;;2.95;;
14760;SDS011;7472;45.396;5.272;2023-11-19T09:53:31;3.95;;;2.65;;
14760;SDS011;7472;45.396;5.272;2023-11-19T09:56:00;2.78;;;2.50;;
14760;SDS011;7472;45.396;5.272;2023-11-19T09:58:29;3.05;;;2.40;;
14760;SDS011;7472;45.396;5.272;2023-11-19T10:00:56;4.40;;;2.85;;
14760;SDS011;7472;45.396;5.272;2023-11-19T10:03:24;3.15;;;2.30;;
14760;SDS011;7472;45.396;5.272;2023-11-19T10:05:54;2.58;;;2.17;;
14760;SDS011;7472;45.396;5.272;2023-11-19T10:08:22;2.45;;;1.88;;
14760;SDS011;7472;45.396;5.272;2023-11-19T10:10:49;2.13;;;1.63;;
14760;SDS011;7472;45.396;5.272;2023-11-19T10:13:18;2.58;;;1.65;;
14760;SDS011;7472;45.396;5.272;2023-11-19T10:15:45;1.80;;;1.70;;
14760;SDS011;7472;45.396;5.272;2023-11-19T10:18:15;4.35;;;3.38;;
14760;SDS011;7472;45.396;5.272;2023-11-19T10:20:42;3.42;;;1.88;;
14760;SDS011;7472;45.396;5.272;2023-11-19T10:23:10;1.25;;;1.15;;
14760;SDS011;7472;45.396;5.272;2023-11-19T10:25:37;3.25;;;2.45;;
14760;SDS011;7472;45.396;5.272;2023-11-19T10:28:04;2.55;;;2.33;;
14760;SDS011;7472;45.396;5.272;2023-11-19T10:30:34;2.25;;;1.90;;
14760;SDS011;7472;45.396;5.272;2023-11-19T10:33:04;2.65;;;1.90;;
14760;SDS011;7472;45.396;5.272;2023-11-19T10:35:32;3.90;;;1.80;;
14760;SDS011;7472;45.396;5.272;2023-11-19T10:38:00;1.75;;;1.50;;
14760;SDS011;7472;45.396;5.272;2023-11-19T10:40:37;1.30;;;1.20;;
14760;SDS011;7472;45.396;5.272;2023-11-19T10:43:06;1.48;;;1.23;;
14760;SDS011;7472;45.396;5.272;2023-11-19T10:45:35;1.75;;;1.25;;
14760;SDS011;7472;45.396;5.272;2023-11-19T10:48:02;3.20;;;1.42;;
14760;SDS011;7472;45.396;5.272;2023-11-19T10:50:32;1.85;;;1.00;;
14760;SDS011;7472;45.396;5.272;2023-11-19T10:53:00;1.38;;;1.02;;
14760;SDS011;7472;45.396;5.272;2023-11-19T10:55:28;2.45;;;0.90;;
14760;SDS011;7472;45.396;5.272;2023-11-19T10:57:58;1.23;;;0.98;;
14760;SDS011;7472;45.396;5.272;2023-11-19T11:00:26;1.58;;;0.70;;
14760;SDS011;7472;45.396;5.272;2023-11-19T11:03:00;1.95;;;1.05;;
14760;SDS011;7472;45.396;5.272;2023-11-19T11:05:29;1.00;;;0.80;;
14760;SDS011;7472;45.396;5.272;2023-11-19T11:08:00;1.40;;;1.00;;
14760;SDS011;7472;45.396;5.272;2023-11-19T11:10:29;2.03;;;0.93;;
14760;SDS011;7472;45.396;5.272;2023-11-19T11:13:01;2.53;;;0.90;;
14760;SDS011;7472;45.396;5.272;2023-11-19T11:15:30;1.88;;;0.75;;
14760;SDS011;7472;45.396;5.272;2023-11-19T11:18:00;1.63;;;0.80;;
14760;SDS011;7472;45.396;5.272;2023-11-19T11:20:28;1.17;;;0.90;;
14760;SDS011;7472;45.396;5.272;2023-11-19T11:22:59;1.27;;;1.00;;
14760;SDS011;7472;45.396;5.272;2023-11-19T11:25:34;1.02;;;0.77;;
14760;SDS011;7472;45.396;5.272;2023-11-19T11:28:06;2.08;;;1.02;;
14760;SDS011;7472;45.396;5.272;2023-11-19T11:30:39;5.28;;;1.40;;
14760;SDS011;7472;45.396;5.272;2023-11-19T11:33:15;1.08;;;0.98;;
14760;SDS011;7472;45.396;5.272;2023-11-19T11:35:49;1.25;;;1.15;;
14760;SDS011;7472;45.396;5.272;2023-11-19T11:38:17;1.20;;;1.00;;
14760;SDS011;7472;45.396;5.272;2023-11-19T11:43:46;2.85;;;1.40;;
14760;SDS011;7472;45.396;5.272;2023-11-19T11:49:01;3.63;;;0.90;;
14760;SDS011;7472;45.396;5.272;2023-11-19T11:54:25;1.10;;;1.00;;
14760;SDS011;7472;45.396;5.272;2023-11-19T11:57:07;3.80;;;1.08;;
14760;SDS011;7472;45.396;5.272;2023-11-19T11:59:45;1.75;;;1.00;;
14760;SDS011;7472;45.396;5.272;2023-11-19T12:02:13;2.38;;;1.17;;
14760;SDS011;7472;45.396;5.272;2023-11-19T12:04:43;6.28;;;1.67;;
14760;SDS011;7472;45.396;5.272;2023-11-19T12:07:14;2.80;;;1.83;;
14760;SDS011;7472;45.396;5.272;2023-11-19T12:09:42;2.10;;;1.77;;
14760;SDS011;7472;45.396;5.272;2023-11-19T12:12:18;2.70;;;2.00;;
14760;SDS011;7472;45.396;5.272;2023-11-19T12:17:37;2.45;;;1.27;;
14760;SDS011;7472;45.396;5.272;2023-11-19T12:20:11;1.63;;;0.93;;
14760;SDS011;7472;45.396;5.272;2023-11-19T12:22:39;3.67;;;1.17;;
14760;SDS011;7472;45.396;5.272;2023-11-19T12:25:06;1.58;;;1.00;;
14760;SDS011;7472;45.396;5.272;2023-11-19T12:27:34;1.70;;;1.00;;
14760;SDS011;7472;45.396;5.272;2023-11-19T12:30:01;1.65;;;1.13;;
14760;SDS011;7472;45.396;5.272;2023-11-19T12:32:37;1.65;;;1.05;;
14760;SDS011;7472;45.396;5.272;2023-11-19T12:35:05;1.58;;;1.23;;
14760;SDS011;7472;45.396;5.272;2023-11-19T12:37:39;1.35;;;1.13;;
14760;SDS011;7472;45.396;5.272;2023-11-19T12:40:16;1.23;;;0.93;;
14760;SDS011;7472;45.396;5.272;2023-11-19T12:42:44;1.67;;;1.23;;
14760;SDS011;7472;45.396;5.272;2023-11-19T12:45:11;1.98;;;1.10;;
14760;SDS011;7472;45.396;5.272;2023-11-19T12:47:39;1.75;;;0.88;;
14760;SDS011;7472;45.396;5.272;2023-11-19T12:50:06;1.30;;;1.20;;
14760;SDS011;7472;45.396;5.272;2023-11-19T12:52:34;1.20;;;1.10;;
14760;SDS011;7472;45.396;5.272;2023-11-19T12:55:03;2.85;;;1.58;;
14760;SDS011;7472;45.396;5.272;2023-11-19T12:57:40;2.03;;;1.38;;
14760;SDS011;7472;45.396;5.272;2023-11-19T13:00:17;5.10;;;1.85;;
14760;SDS011;7472;45.396;5.272;2023-11-19T13:02:46;2.17;;;1.60;;
14760;SDS011;7472;45.396;5.272;2023-11-19T13:05:21;4.90;;;1.77;;
14760;SDS011;7472;45.396;5.272;2023-11-19T13:07:48;5.15;;;1.45;;
14760;SDS011;7472;45.396;5.272;2023-11-19T13:10:17;1.80;;;1.30;;
14760;SDS011;7472;45.396;5.272;2023-11-19T13:12:45;2.10;;;1.55;;
14760;SDS011;7472;45.396;5.272;2023-11-19T13:15:26;2.63;;;1.45;;
14760;SDS011;7472;45.396;5.272;2023-11-19T13:17:53;2.55;;;1.67;;
14760;SDS011;7472;45.396;5.272;2023-11-19T13:20:21;1.42;;;1.30;;
14760;SDS011;7472;45.396;5.272;2023-11-19T13:22:57;1.45;;;1.13;;
14760;SDS011;7472;45.396;5.272;2023-11-19T13:25:26;1.30;;;1.20;;
14760;SDS011;7472;45.396;5.272;2023-11-19T13:27:54;2.00;;;1.55;;
14760;SDS011;7472;45.396;5.272;2023-11-19T13:30:21;2.58;;;1.70;;
14760;SDS011;7472;45.396;5.272;2023-11-19T13:32:49;2.28;;;1.88;;
14760;SDS011;7472;45.396;5.272;2023-11-19T13:35:17;4.25;;;2.17;;
14760;SDS011;7472;45.396;5.272;2023-11-19T13:37:45;2.70;;;2.00;;
14760;SDS011;7472;45.396;5.272;2023-11-19T13:40:12;5.85;;;2.58;;
14760;SDS011;7472;45.396;5.272;2023-11-19T13:42:42;5.60;;;4.47;;
14760;SDS011;7472;45.396;5.272;2023-11-19T13:45:09;5.07;;;4.35;;
14760;SDS011;7472;45.396;5.272;2023-11-19T13:47:38;5.25;;;3.60;;
14760;SDS011;7472;45.396;5.272;2023-11-19T13:50:07;13.25;;;9.68;;
14760;SDS011;7472;45.396;5.272;2023-11-19T13:52:35;8.70;;;7.80;;
14760;SDS011;7472;45.396;5.272;2023-11-19T13:55:04;3.78;;;2.13;;
14760;SDS011;7472;45.396;5.272;2023-11-19T13:57:32;2.38;;;2.17;;
14760;SDS011;7472;45.396;5.272;2023-11-19T14:00:01;2.00;;;1.63;;
14760;SDS011;7472;45.396;5.272;2023-11-19T14:02:30;0.85;;;0.80;;
14760;SDS011;7472;45.396;5.272;2023-11-19T14:04:58;2.17;;;1.63;;
14760;SDS011;7472;45.396;5.272;2023-11-19T14:07:25;1.23;;;1.13;;
14760;SDS011;7472;45.396;5.272;2023-11-19T14:09:52;1.50;;;1.40;;
14760;SDS011;7472;45.396;5.272;2023-11-19T14:12:20;2.42;;;1.88;;
14760;SDS011;7472;45.396;5.272;2023-11-19T14:14:47;3.42;;;2.15;;
14760;SDS011;7472;45.396;5.272;2023-11-19T14:17:16;3.65;;;2.47;;
14760;SDS011;7472;45.396;5.272;2023-11-19T14:19:43;4.90;;;2.13;;
14760;SDS011;7472;45.396;5.272;2023-11-19T14:22:11;4.65;;;2.13;;
14760;SDS011;7472;45.396;5.272;2023-11-19T14:24:38;3.40;;;2.33;;
14760;SDS011;7472;45.396;5.272;2023-11-19T14:27:07;2.33;;;2.00;;
14760;SDS011;7472;45.396;5.272;2023-11-19T14:29:35;4.05;;;3.33;;
14760;SDS011;7472;45.396;5.272;2023-11-19T14:32:03;4.15;;;3.60;;
14760;SDS011;7472;45.396;5.272;2023-11-19T14:34:31;3.47;;;2.80;;
14760;SDS011;7472;45.396;5.272;2023-11-19T14:36:59;3.38;;;1.98;;
14760;SDS011;7472;45.396;5.272;2023-11-19T14:39:26;4.60;;;4.20;;
14760;SDS011;7472;45.396;5.272;2023-11-19T14:41:56;6.70;;;6.13;;
14760;SDS011;7472;45.396;5.272;2023-11-19T14:44:26;6.72;;;6.13;;
14760;SDS011;7472;45.396;5.272;2023-11-19T14:46:54;6.25;;;4.55;;
14760;SDS011;7472;45.396;5.272;2023-11-19T14:49:22;4.47;;;2.70;;
14760;SDS011;7472;45.396;5.272;2023-11-19T14:51:51;3.72;;;2.55;;
14760;SDS011;7472;45.396;5.272;2023-11-19T14:54:18;3.85;;;2.78;;
14760;SDS011;7472;45.396;5.272;2023-11-19T14:56:46;2.90;;;1.90;;
14760;SDS011;7472;45.396;5.272;2023-11-19T14:59:13;2.80;;;2.28;;
14760;SDS011;7472;45.396;5.272;2023-11-19T15:01:40;5.32;;;2.55;;
14760;SDS011;7472;45.396;5.272;2023-11-19T15:04:08;5.22;;;2.03;;
14760;SDS011;7472;45.396;5.272;2023-11-19T15:06:36;4.05;;;2.38;;
14760;SDS011;7472;45.396;5.272;2023-11-19T15:09:05;5.07;;;2.03;;
14760;SDS011;7472;45.396;5.272;2023-11-19T15:11:33;3.92;;;2.42;;
14760;SDS011;7472;45.396;5.272;2023-11-19T15:14:00;7.18;;;1.83;;
14760;SDS011;7472;45.396;5.272;2023-11-19T15:16:28;3.45;;;2.08;;
14760;SDS011;7472;45.396;5.272;2023-11-19T15:18:59;3.58;;;2.00;;